Hauptseite
METAR-TAF:

METAR-TAF

Flughäfen :

RAF Leeming

Leeming, England

Breite: 54-18N, Länge: 001-32W, Höhe: 40 m

Beobachtung

Neuester Wetterbericht von vor 37 Minuten, um 02:50 UTC
Wind 12 kt aus Nord
Temperatur 10°C
Luftfeuchtigkeit 93%
Luftdruck 1022 hPa
Sichtweite: 4500 m
trockener Dunst

METAR: EGXE 250250Z AUTO 36012KT 4500 HZ OVC004/// 10/09 Q1022

Zeit: 04:27 (03:27 UTC)

Prognose

Neuester Wetterbericht von vor 14 Stunden und 10 Minuten, um 13:17 UTC
Gültige Prognose vom 24 um 15 UTC bis 24 um 18 UTC
Wind 12 kt aus Nord/Nordost
Sichtweite 10 km oder mehr
Leicht bewölkt in der Höhe von 1500 ft

TAF: EGXE 241317Z 2415/2418 02012KT 9999 FEW015

Wetterbeobachtungen und Prognosen von mehr als 4000 Flughäfen (METAR und TAF Bericht).

Die verfügbaren Stationen werden durch gelbe und rote Markierungen auf der Karte dargestellt.

Führen Sie die Maus auf sie, um den Namen der Station zu sehen.

Darauf klicken, um die Beobachtung von Wetterbeobachtungen und Prognosen zu sehen.

Um die Karte zu ändern : klicken Sie auf den grünen Tasten mit einem schwarzen Kreuz Zum Vergrößern, auf den grünen Button mit einem Gedankenstrich zu verkleinern, oder auf die grünen Pfeile für benachbarte Karten.


METAR-TAF: